East Coast - north of Cape St. Francis: Past 24 Hour Conditions

 

East Point

10:00 AM ADT 20 October 2014
This table is a summary of hourly weather conditions for the past 24 hours.
Date / Time
(ADT)
Wind(knots) Conditions Visibility(km) Pressure(kPa) Air tempC) Relative humidity(%) Dew pointC)
20 October 2014
10:00 W 16 N/A N/A 100.2 5 94 4
9:00 W 16 gust 24 N/A N/A 100.0 6 91 5
8:00 WNW 20 gust 26 N/A N/A 99.9 7 89 6
7:00 NW 25 gust 30 N/A N/A 99.8 7 88 6
6:00 WNW 24 gust 29 N/A N/A 99.7 8 92 6
5:00 NW 24 N/A N/A 99.7 8 93 7
4:00 NNW 22 gust 28 N/A N/A 99.7 9 95 8
3:00 NNW 18 N/A N/A 99.8 9 95 8
2:00 N 18 N/A N/A 99.8 8 93 7
1:00 NNE 16 gust 21 N/A N/A 100.0 9 94 8
0:00 N 17 N/A N/A 100.1 9 94 8
19 October 2014
23:00 NNE 16 N/A N/A 100.2 10 87 8
22:00 NNE 13 N/A N/A 100.3 11 87 9
21:00 NNE 11 N/A N/A 100.4 11 88 9
20:00 N 11 N/A N/A 100.4 11 89 10
19:00 NNW 8 N/A N/A 100.4 12 88 10
18:00 N 7 N/A N/A 100.3 12 89 10
17:00 NNW 7 N/A N/A 100.3 13 89 11
16:00 NW 6 N/A N/A 100.3 14 87 12
15:00 NW 10 N/A N/A 100.2 14 86 12
14:00 SSW 10 N/A N/A 100.2 17 84 14
13:00 SW 13 N/A N/A 100.2 18 80 14
12:00 SW 10 N/A N/A 100.2 16 88 14
11:00 SSW 10 gust 15 N/A N/A 100.1 15 90 14
10:00 SSW 12 gust 19 N/A N/A 100.1 16 87 13
 
Map of Atlantic - Newfoundland marine weather areas Southwestern Grand Banks - 44138 Banquereau - 44139 Tail of the Bank - 44140 Nickerson Bank - 44251 Northeast Burgeo Bank - 44255 Blanc-Sablon Airport Cap Whittle Chevery Natashquan Airport Heath Point Miscou Island Grand Étang Ingonish Beach North Mountain St.Paul Island J.A. Douglas McCurdy Sydney Airport Charlottetown Airport East Point North Cape Argentia Bonavista Burgeo Cape Race Corner Brook Daniel's Harbour Englee Ferolle Point La Scie Port aux Basques Rocky Harbour Sagona Island St. Anthony Airport St. John's Int'l Airport St. Lawrence Stephenville Airport Twillingate Winterland Wreckhouse Cartwright Airport Mary's Harbour Grates Cove Pool's Island Marticot Island Long Pond Îles de la Madeleine Airport
Legend: buoyBuoy land stationLand Station